25°C Temp
11°C Dewpoint
42% Humidity
Temperature
16 KM/H
10 MPH
9 KTS
70°
East North
East

Wind Speed
Partly Cloudy
Conditions
Pressure 1025.92 (hPa) - 30.3 (in)
Visibility 6.2 (mi) - 10.0 (km)

Current Conditions
LEPA
Location 15(km)
Metar :LEPA 250930Z 07009KT 030V090 9999 FEW022 25/11 Q1026 NOSIG
Mon 25th May 10:30 am

Airport
  Metar Aviation API Data Provided by https://www.checkwx.com/ PHP scripts by weather34.com ©2020